sensor_id;sensor_type;location;lat;lon;timestamp;pressure;altitude;pressure_sealevel;temperature;humidity
12360;BME280;6244;51.460;7.090;2022-07-06T00:00:58;99285.28;;;12.15;61.12
12360;BME280;6244;51.460;7.090;2022-07-06T00:05:56;99297.66;;;12.13;58.81
12360;BME280;6244;51.460;7.090;2022-07-06T00:10:52;99296.56;;;12.17;60.85
12360;BME280;6244;51.460;7.090;2022-07-06T00:15:50;99289.03;;;12.11;58.86
12360;BME280;6244;51.460;7.090;2022-07-06T00:20:46;99290.47;;;12.01;57.30
12360;BME280;6244;51.460;7.090;2022-07-06T00:25:43;99294.28;;;12.11;59.48
12360;BME280;6244;51.460;7.090;2022-07-06T00:30:40;99283.63;;;11.99;58.39
12360;BME280;6244;51.460;7.090;2022-07-06T00:35:38;99290.25;;;11.90;56.91
12360;BME280;6244;51.460;7.090;2022-07-06T00:40:35;99286.97;;;11.87;56.95
12360;BME280;6244;51.460;7.090;2022-07-06T00:45:31;99284.50;;;11.84;56.63
12360;BME280;6244;51.460;7.090;2022-07-06T00:50:28;99284.34;;;11.87;56.33
12360;BME280;6244;51.460;7.090;2022-07-06T00:55:28;99286.88;;;11.73;55.79
12360;BME280;6244;51.460;7.090;2022-07-06T01:00:26;99288.72;;;11.71;54.74
12360;BME280;6244;51.460;7.090;2022-07-06T01:05:23;99282.56;;;11.72;55.20
12360;BME280;6244;51.460;7.090;2022-07-06T01:10:21;99299.56;;;11.80;56.73
12360;BME280;6244;51.460;7.090;2022-07-06T01:15:21;99299.22;;;11.71;54.82
12360;BME280;6244;51.460;7.090;2022-07-06T01:20:21;99294.16;;;11.83;54.95
12360;BME280;6244;51.460;7.090;2022-07-06T01:25:18;99299.81;;;11.91;56.23
12360;BME280;6244;51.460;7.090;2022-07-06T01:30:16;99293.63;;;11.92;55.09
12360;BME280;6244;51.460;7.090;2022-07-06T01:35:14;99294.81;;;12.02;55.17
12360;BME280;6244;51.460;7.090;2022-07-06T01:40:13;99283.63;;;11.99;55.28
12360;BME280;6244;51.460;7.090;2022-07-06T01:45:10;99286.28;;;11.83;53.75
12360;BME280;6244;51.460;7.090;2022-07-06T01:50:08;99271.09;;;11.57;52.30
12360;BME280;6244;51.460;7.090;2022-07-06T01:55:05;99273.22;;;11.35;51.65
12360;BME280;6244;51.460;7.090;2022-07-06T02:00:06;99269.19;;;11.30;51.35
12360;BME280;6244;51.460;7.090;2022-07-06T02:05:03;99273.81;;;11.25;50.80
12360;BME280;6244;51.460;7.090;2022-07-06T02:09:59;99272.81;;;11.12;49.98
12360;BME280;6244;51.460;7.090;2022-07-06T02:14:56;99277.00;;;10.98;49.45
12360;BME280;6244;51.460;7.090;2022-07-06T02:19:54;99275.44;;;11.12;49.98
12360;BME280;6244;51.460;7.090;2022-07-06T02:24:50;99281.56;;;11.11;49.69
12360;BME280;6244;51.460;7.090;2022-07-06T02:29:47;99276.81;;;11.02;50.73
12360;BME280;6244;51.460;7.090;2022-07-06T02:34:43;99276.13;;;10.82;49.12
12360;BME280;6244;51.460;7.090;2022-07-06T02:39:41;99268.09;;;10.85;49.54
12360;BME280;6244;51.460;7.090;2022-07-06T02:44:38;99270.44;;;10.74;49.02
12360;BME280;6244;51.460;7.090;2022-07-06T02:49:34;99268.22;;;10.67;49.17
12360;BME280;6244;51.460;7.090;2022-07-06T02:54:31;99271.38;;;10.73;49.55
12360;BME280;6244;51.460;7.090;2022-07-06T02:59:29;99274.09;;;10.55;49.26
12360;BME280;6244;51.460;7.090;2022-07-06T03:04:25;99270.50;;;10.23;49.24
12360;BME280;6244;51.460;7.090;2022-07-06T03:09:22;99263.69;;;10.02;49.70
12360;BME280;6244;51.460;7.090;2022-07-06T03:14:19;99276.06;;;9.99;50.10
12360;BME280;6244;51.460;7.090;2022-07-06T03:19:16;99283.50;;;9.89;50.85
12360;BME280;6244;51.460;7.090;2022-07-06T03:24:13;99291.13;;;9.94;51.30
12360;BME280;6244;51.460;7.090;2022-07-06T03:29:09;99292.28;;;10.07;51.15
12360;BME280;6244;51.460;7.090;2022-07-06T03:34:06;99290.75;;;10.37;51.82
12360;BME280;6244;51.460;7.090;2022-07-06T03:39:04;99284.88;;;10.49;51.20
12360;BME280;6244;51.460;7.090;2022-07-06T03:44:01;99284.88;;;10.49;51.09
12360;BME280;6244;51.460;7.090;2022-07-06T03:48:57;99279.03;;;10.44;50.88
12360;BME280;6244;51.460;7.090;2022-07-06T03:53:54;99276.88;;;10.35;50.77
12360;BME280;6244;51.460;7.090;2022-07-06T03:58:52;99287.03;;;10.41;50.95
12360;BME280;6244;51.460;7.090;2022-07-06T04:03:49;99288.59;;;10.45;50.99
12360;BME280;6244;51.460;7.090;2022-07-06T04:08:46;99284.19;;;10.45;51.15
12360;BME280;6244;51.460;7.090;2022-07-06T04:13:42;99295.50;;;10.63;51.58
12360;BME280;6244;51.460;7.090;2022-07-06T04:18:40;99294.22;;;10.87;51.34
12360;BME280;6244;51.460;7.090;2022-07-06T04:23:37;99301.00;;;11.24;51.32
12360;BME280;6244;51.460;7.090;2022-07-06T04:28:33;99307.50;;;11.32;51.73
12360;BME280;6244;51.460;7.090;2022-07-06T04:33:30;99303.53;;;11.41;51.07
12360;BME280;6244;51.460;7.090;2022-07-06T04:38:28;99299.97;;;11.57;52.00
12360;BME280;6244;51.460;7.090;2022-07-06T04:43:24;99302.69;;;11.40;51.25
12360;BME280;6244;51.460;7.090;2022-07-06T04:48:21;99304.97;;;11.62;51.39
12360;BME280;6244;51.460;7.090;2022-07-06T04:53:17;99300.91;;;11.56;50.78
12360;BME280;6244;51.460;7.090;2022-07-06T04:58:15;99297.03;;;11.48;50.93
12360;BME280;6244;51.460;7.090;2022-07-06T05:03:12;99296.84;;;11.51;51.33
12360;BME280;6244;51.460;7.090;2022-07-06T05:08:08;99298.88;;;11.46;51.31
12360;BME280;6244;51.460;7.090;2022-07-06T05:13:05;99299.56;;;11.49;50.52
12360;BME280;6244;51.460;7.090;2022-07-06T05:18:03;99296.94;;;11.65;51.17
12360;BME280;6244;51.460;7.090;2022-07-06T05:23:00;99297.16;;;11.60;51.47
12360;BME280;6244;51.460;7.090;2022-07-06T05:27:56;99301.69;;;11.58;51.25
12360;BME280;6244;51.460;7.090;2022-07-06T05:32:53;99318.03;;;11.63;51.18
12360;BME280;6244;51.460;7.090;2022-07-06T05:37:50;99311.69;;;11.67;51.23
12360;BME280;6244;51.460;7.090;2022-07-06T05:42:47;99308.13;;;11.68;51.55
12360;BME280;6244;51.460;7.090;2022-07-06T05:47:43;99310.06;;;11.80;51.39
12360;BME280;6244;51.460;7.090;2022-07-06T05:53:00;99318.19;;;11.91;50.76
12360;BME280;6244;51.460;7.090;2022-07-06T05:57:57;99321.91;;;12.03;51.48
12360;BME280;6244;51.460;7.090;2022-07-06T06:02:54;99331.94;;;12.26;52.12
12360;BME280;6244;51.460;7.090;2022-07-06T06:07:51;99340.72;;;12.70;52.18
12360;BME280;6244;51.460;7.090;2022-07-06T06:12:49;99343.69;;;13.08;54.52
12360;BME280;6244;51.460;7.090;2022-07-06T06:17:46;99340.59;;;13.43;57.14
12360;BME280;6244;51.460;7.090;2022-07-06T06:22:47;99341.91;;;13.91;60.57
12360;BME280;6244;51.460;7.090;2022-07-06T06:27:43;99351.22;;;14.37;62.85
12360;BME280;6244;51.460;7.090;2022-07-06T06:32:41;99358.75;;;14.29;66.80
12360;BME280;6244;51.460;7.090;2022-07-06T06:37:38;99348.53;;;14.10;68.28
12360;BME280;6244;51.460;7.090;2022-07-06T06:42:36;99349.72;;;13.92;64.88
12360;BME280;6244;51.460;7.090;2022-07-06T06:47:32;99352.03;;;14.11;62.83
12360;BME280;6244;51.460;7.090;2022-07-06T06:52:31;99351.81;;;14.28;65.92
12360;BME280;6244;51.460;7.090;2022-07-06T06:57:27;99354.16;;;14.32;69.31
12360;BME280;6244;51.460;7.090;2022-07-06T07:02:24;99362.78;;;14.34;70.08
12360;BME280;6244;51.460;7.090;2022-07-06T07:07:21;99365.97;;;14.91;74.14
12360;BME280;6244;51.460;7.090;2022-07-06T07:12:19;99374.97;;;15.14;75.37
12360;BME280;6244;51.460;7.090;2022-07-06T07:17:15;99370.25;;;14.67;74.29
12360;BME280;6244;51.460;7.090;2022-07-06T07:22:12;99371.25;;;15.16;76.25
12360;BME280;6244;51.460;7.090;2022-07-06T07:27:08;99379.44;;;15.51;77.07
12360;BME280;6244;51.460;7.090;2022-07-06T07:32:06;99392.47;;;15.15;77.19
12360;BME280;6244;51.460;7.090;2022-07-06T07:37:03;99384.66;;;14.88;76.56
12360;BME280;6244;51.460;7.090;2022-07-06T07:42:00;99374.91;;;14.76;76.31
12360;BME280;6244;51.460;7.090;2022-07-06T07:46:57;99389.31;;;14.97;76.75
12360;BME280;6244;51.460;7.090;2022-07-06T07:51:55;99391.44;;;15.67;76.42
12360;BME280;6244;51.460;7.090;2022-07-06T07:56:51;99399.78;;;16.46;73.95
12360;BME280;6244;51.460;7.090;2022-07-06T08:01:49;99396.63;;;16.99;72.38
12360;BME280;6244;51.460;7.090;2022-07-06T08:06:46;99393.53;;;17.05;67.64
12360;BME280;6244;51.460;7.090;2022-07-06T08:11:44;99393.41;;;16.25;68.51
12360;BME280;6244;51.460;7.090;2022-07-06T08:16:40;99396.56;;;17.23;71.13
12360;BME280;6244;51.460;7.090;2022-07-06T08:21:37;99419.19;;;21.09;51.12
12360;BME280;6244;51.460;7.090;2022-07-06T08:26:34;99427.25;;;22.91;41.04
12360;BME280;6244;51.460;7.090;2022-07-06T08:31:32;99421.31;;;21.62;44.65
12360;BME280;6244;51.460;7.090;2022-07-06T08:36:30;99398.44;;;19.26;51.39
12360;BME280;6244;51.460;7.090;2022-07-06T08:41:28;99396.50;;;19.07;53.95
12360;BME280;6244;51.460;7.090;2022-07-06T08:46:27;99393.59;;;17.93;58.27
12360;BME280;6244;51.460;7.090;2022-07-06T08:51:27;99388.03;;;16.85;59.24
12360;BME280;6244;51.460;7.090;2022-07-06T08:56:24;99382.22;;;16.80;61.11
12360;BME280;6244;51.460;7.090;2022-07-06T09:01:21;99400.06;;;18.12;55.85
12360;BME280;6244;51.460;7.090;2022-07-06T09:06:22;99398.88;;;18.16;54.69
12360;BME280;6244;51.460;7.090;2022-07-06T09:11:21;99400.25;;;17.55;60.39
12360;BME280;6244;51.460;7.090;2022-07-06T09:16:25;99389.91;;;17.06;62.81
12360;BME280;6244;51.460;7.090;2022-07-06T09:21:23;99396.13;;;16.94;63.81
12360;BME280;6244;51.460;7.090;2022-07-06T09:26:23;99403.47;;;17.58;57.49
12360;BME280;6244;51.460;7.090;2022-07-06T09:31:19;99401.78;;;17.90;54.58
12360;BME280;6244;51.460;7.090;2022-07-06T09:36:36;99390.59;;;17.76;58.52
12360;BME280;6244;51.460;7.090;2022-07-06T09:41:35;99386.38;;;17.62;58.85
12360;BME280;6244;51.460;7.090;2022-07-06T09:46:37;99380.88;;;18.19;57.15
12360;BME280;6244;51.460;7.090;2022-07-06T09:51:35;99404.38;;;18.98;54.19
12360;BME280;6244;51.460;7.090;2022-07-06T09:56:37;99406.28;;;19.48;53.02
12360;BME280;6244;51.460;7.090;2022-07-06T10:01:34;99431.41;;;24.31;41.49
12360;BME280;6244;51.460;7.090;2022-07-06T10:06:31;99433.69;;;24.18;35.97
12360;BME280;6244;51.460;7.090;2022-07-06T10:11:28;99413.88;;;21.75;40.67
12360;BME280;6244;51.460;7.090;2022-07-06T10:16:26;99416.16;;;19.97;42.57
12360;BME280;6244;51.460;7.090;2022-07-06T10:21:23;99392.84;;;18.88;48.51
12360;BME280;6244;51.460;7.090;2022-07-06T10:26:21;99399.66;;;18.81;48.79
12360;BME280;6244;51.460;7.090;2022-07-06T10:31:19;99400.59;;;19.11;49.91
12360;BME280;6244;51.460;7.090;2022-07-06T10:36:17;99409.06;;;20.94;43.65
12360;BME280;6244;51.460;7.090;2022-07-06T10:41:14;99429.31;;;24.58;38.57
12360;BME280;6244;51.460;7.090;2022-07-06T10:46:12;99429.38;;;23.91;32.54
12360;BME280;6244;51.460;7.090;2022-07-06T10:51:11;99408.13;;;22.06;37.75
12360;BME280;6244;51.460;7.090;2022-07-06T10:56:10;99401.63;;;20.59;41.07
12360;BME280;6244;51.460;7.090;2022-07-06T11:01:08;99405.78;;;23.18;37.48
12360;BME280;6244;51.460;7.090;2022-07-06T11:06:07;99390.53;;;20.83;41.22
12360;BME280;6244;51.460;7.090;2022-07-06T11:11:12;99398.59;;;21.02;40.37
12360;BME280;6244;51.460;7.090;2022-07-06T11:16:09;99402.06;;;22.04;37.89
12360;BME280;6244;51.460;7.090;2022-07-06T11:21:20;99399.38;;;21.31;42.13
12360;BME280;6244;51.460;7.090;2022-07-06T11:26:18;99392.28;;;19.76;44.53
12360;BME280;6244;51.460;7.090;2022-07-06T11:31:17;99378.50;;;19.31;48.93
12360;BME280;6244;51.460;7.090;2022-07-06T11:36:16;99378.25;;;18.62;49.25
12360;BME280;6244;51.460;7.090;2022-07-06T11:41:14;99375.03;;;17.38;51.82
12360;BME280;6244;51.460;7.090;2022-07-06T11:46:23;99368.78;;;17.83;53.64
12360;BME280;6244;51.460;7.090;2022-07-06T11:51:22;99369.19;;;18.64;49.84
12360;BME280;6244;51.460;7.090;2022-07-06T11:56:20;99381.25;;;20.20;44.51
12360;BME280;6244;51.460;7.090;2022-07-06T12:01:22;99386.78;;;20.85;44.00
12360;BME280;6244;51.460;7.090;2022-07-06T12:06:21;99387.88;;;21.11;42.47
12360;BME280;6244;51.460;7.090;2022-07-06T12:11:23;99382.56;;;21.11;42.14
12360;BME280;6244;51.460;7.090;2022-07-06T12:16:28;99373.31;;;21.06;42.68
12360;BME280;6244;51.460;7.090;2022-07-06T12:21:25;99366.31;;;20.76;40.65
12360;BME280;6244;51.460;7.090;2022-07-06T12:26:23;99342.91;;;19.83;41.80
12360;BME280;6244;51.460;7.090;2022-07-06T12:31:37;99343.88;;;20.79;43.77
12360;BME280;6244;51.460;7.090;2022-07-06T12:36:42;99344.59;;;19.54;41.53
12360;BME280;6244;51.460;7.090;2022-07-06T12:41:44;99326.31;;;19.30;44.38
12360;BME280;6244;51.460;7.090;2022-07-06T12:46:42;99328.72;;;20.22;41.72
12360;BME280;6244;51.460;7.090;2022-07-06T12:51:52;99322.09;;;19.07;46.25
12360;BME280;6244;51.460;7.090;2022-07-06T13:02:21;99309.56;;;18.48;47.08
12360;BME280;6244;51.460;7.090;2022-07-06T13:07:18;99313.66;;;18.09;47.25
12360;BME280;6244;51.460;7.090;2022-07-06T13:12:15;99303.53;;;18.03;49.22
12360;BME280;6244;51.460;7.090;2022-07-06T13:17:12;99294.97;;;18.31;49.25
12360;BME280;6244;51.460;7.090;2022-07-06T13:22:10;99293.16;;;19.04;47.73
12360;BME280;6244;51.460;7.090;2022-07-06T13:27:06;99300.91;;;19.17;46.37
12360;BME280;6244;51.460;7.090;2022-07-06T13:32:06;99295.25;;;19.61;45.15
12360;BME280;6244;51.460;7.090;2022-07-06T13:37:03;99305.75;;;20.50;45.42
12360;BME280;6244;51.460;7.090;2022-07-06T13:42:02;99296.59;;;19.95;42.79
12360;BME280;6244;51.460;7.090;2022-07-06T13:46:59;99288.16;;;19.11;45.82
12360;BME280;6244;51.460;7.090;2022-07-06T13:51:55;99290.53;;;18.84;47.16
12360;BME280;6244;51.460;7.090;2022-07-06T13:56:57;99277.69;;;18.89;46.62
12360;BME280;6244;51.460;7.090;2022-07-06T14:01:55;99289.63;;;18.94;47.96
12360;BME280;6244;51.460;7.090;2022-07-06T14:06:52;99291.97;;;19.48;46.23
12360;BME280;6244;51.460;7.090;2022-07-06T14:11:48;99277.59;;;19.50;45.26
12360;BME280;6244;51.460;7.090;2022-07-06T14:16:45;99277.06;;;19.66;46.11
12360;BME280;6244;51.460;7.090;2022-07-06T14:21:43;99281.19;;;19.99;45.02
12360;BME280;6244;51.460;7.090;2022-07-06T14:26:41;99278.03;;;20.14;43.64
12360;BME280;6244;51.460;7.090;2022-07-06T14:31:38;99264.38;;;19.98;44.71
12360;BME280;6244;51.460;7.090;2022-07-06T14:36:35;99265.13;;;20.10;44.76
12360;BME280;6244;51.460;7.090;2022-07-06T14:41:34;99272.00;;;20.50;44.88
12360;BME280;6244;51.460;7.090;2022-07-06T14:46:31;99275.22;;;20.54;42.47
12360;BME280;6244;51.460;7.090;2022-07-06T14:51:30;99262.59;;;19.40;44.75
12360;BME280;6244;51.460;7.090;2022-07-06T14:56:27;99250.78;;;18.73;46.81
12360;BME280;6244;51.460;7.090;2022-07-06T15:01:25;99248.28;;;19.31;50.29
12360;BME280;6244;51.460;7.090;2022-07-06T15:06:21;99248.44;;;19.98;44.12
12360;BME280;6244;51.460;7.090;2022-07-06T15:11:18;99245.63;;;19.81;44.57
12360;BME280;6244;51.460;7.090;2022-07-06T15:16:14;99244.22;;;19.86;45.34
12360;BME280;6244;51.460;7.090;2022-07-06T15:21:12;99243.13;;;19.39;44.95
12360;BME280;6244;51.460;7.090;2022-07-06T15:26:09;99233.66;;;19.16;46.49
12360;BME280;6244;51.460;7.090;2022-07-06T15:31:06;99221.56;;;19.92;44.42
12360;BME280;6244;51.460;7.090;2022-07-06T15:36:03;99223.22;;;20.12;44.86
12360;BME280;6244;51.460;7.090;2022-07-06T15:41:01;99228.59;;;19.43;43.67
12360;BME280;6244;51.460;7.090;2022-07-06T15:45:59;99203.66;;;18.95;46.78
12360;BME280;6244;51.460;7.090;2022-07-06T15:50:57;99209.94;;;19.93;44.64
12360;BME280;6244;51.460;7.090;2022-07-06T15:55:55;99208.13;;;20.31;46.67
12360;BME280;6244;51.460;7.090;2022-07-06T16:00:54;99190.03;;;19.49;46.88
12360;BME280;6244;51.460;7.090;2022-07-06T16:05:51;99182.75;;;18.51;51.70
12360;BME280;6244;51.460;7.090;2022-07-06T16:10:47;99182.34;;;18.35;51.55
12360;BME280;6244;51.460;7.090;2022-07-06T16:15:44;99185.13;;;18.75;51.54
12360;BME280;6244;51.460;7.090;2022-07-06T16:20:42;99184.38;;;19.03;52.10
12360;BME280;6244;51.460;7.090;2022-07-06T16:25:39;99172.38;;;18.99;50.75
12360;BME280;6244;51.460;7.090;2022-07-06T16:30:35;99173.06;;;18.30;51.21
12360;BME280;6244;51.460;7.090;2022-07-06T16:35:32;99164.09;;;18.21;51.38
12360;BME280;6244;51.460;7.090;2022-07-06T16:40:30;99157.31;;;18.49;52.26
12360;BME280;6244;51.460;7.090;2022-07-06T16:45:27;99157.06;;;18.52;50.94
12360;BME280;6244;51.460;7.090;2022-07-06T16:50:24;99151.72;;;18.31;54.12
12360;BME280;6244;51.460;7.090;2022-07-06T16:55:20;99146.63;;;18.19;52.74
12360;BME280;6244;51.460;7.090;2022-07-06T17:00:18;99139.06;;;18.14;52.71
12360;BME280;6244;51.460;7.090;2022-07-06T17:05:15;99140.88;;;18.14;53.53
12360;BME280;6244;51.460;7.090;2022-07-06T17:10:11;99132.47;;;18.09;53.87
12360;BME280;6244;51.460;7.090;2022-07-06T17:15:08;99127.47;;;17.74;53.57
12360;BME280;6244;51.460;7.090;2022-07-06T17:20:07;99123.84;;;17.43;54.98
12360;BME280;6244;51.460;7.090;2022-07-06T17:25:05;99119.63;;;17.41;56.46
12360;BME280;6244;51.460;7.090;2022-07-06T17:30:02;99118.31;;;17.46;54.90
12360;BME280;6244;51.460;7.090;2022-07-06T17:34:59;99123.13;;;17.41;55.60
12360;BME280;6244;51.460;7.090;2022-07-06T17:39:57;99119.13;;;17.58;57.47
12360;BME280;6244;51.460;7.090;2022-07-06T17:44:53;99122.84;;;17.55;55.49
12360;BME280;6244;51.460;7.090;2022-07-06T17:49:50;99113.00;;;17.46;56.66
12360;BME280;6244;51.460;7.090;2022-07-06T17:54:47;99110.13;;;17.38;56.73
12360;BME280;6244;51.460;7.090;2022-07-06T17:59:45;99113.72;;;17.48;58.38
12360;BME280;6244;51.460;7.090;2022-07-06T18:04:41;99107.19;;;17.52;58.52
12360;BME280;6244;51.460;7.090;2022-07-06T18:09:38;99106.75;;;17.47;62.04
12360;BME280;6244;51.460;7.090;2022-07-06T18:14:34;99097.84;;;17.37;60.71
12360;BME280;6244;51.460;7.090;2022-07-06T18:19:32;99093.38;;;17.38;64.07
12360;BME280;6244;51.460;7.090;2022-07-06T18:24:29;99090.47;;;17.41;59.36
12360;BME280;6244;51.460;7.090;2022-07-06T18:29:25;99099.53;;;17.38;61.66
12360;BME280;6244;51.460;7.090;2022-07-06T18:34:22;99088.00;;;17.28;59.15
12360;BME280;6244;51.460;7.090;2022-07-06T18:39:20;99089.47;;;17.21;60.55
12360;BME280;6244;51.460;7.090;2022-07-06T18:44:16;99087.94;;;17.19;62.85
12360;BME280;6244;51.460;7.090;2022-07-06T18:49:13;99085.78;;;17.13;60.89
12360;BME280;6244;51.460;7.090;2022-07-06T18:54:10;99081.44;;;17.12;64.44
12360;BME280;6244;51.460;7.090;2022-07-06T18:59:08;99075.97;;;16.93;65.42
12360;BME280;6244;51.460;7.090;2022-07-06T19:04:04;99066.59;;;16.78;65.86
12360;BME280;6244;51.460;7.090;2022-07-06T19:09:01;99067.09;;;16.50;67.36
12360;BME280;6244;51.460;7.090;2022-07-06T19:13:57;99062.06;;;16.47;68.65
12360;BME280;6244;51.460;7.090;2022-07-06T19:18:55;99064.56;;;16.48;68.29
12360;BME280;6244;51.460;7.090;2022-07-06T19:23:52;99066.84;;;16.53;68.22
12360;BME280;6244;51.460;7.090;2022-07-06T19:28:49;99071.09;;;16.55;67.98
12360;BME280;6244;51.460;7.090;2022-07-06T19:33:46;99068.19;;;16.58;68.42
12360;BME280;6244;51.460;7.090;2022-07-06T19:38:44;99065.31;;;16.61;69.65
12360;BME280;6244;51.460;7.090;2022-07-06T19:43:40;99052.09;;;16.61;68.33
12360;BME280;6244;51.460;7.090;2022-07-06T19:48:37;99053.88;;;16.61;69.32
12360;BME280;6244;51.460;7.090;2022-07-06T19:53:33;99066.38;;;16.59;69.24
12360;BME280;6244;51.460;7.090;2022-07-06T19:58:32;99065.19;;;16.52;68.55
12360;BME280;6244;51.460;7.090;2022-07-06T20:03:28;99059.03;;;16.40;68.86
12360;BME280;6244;51.460;7.090;2022-07-06T20:08:25;99066.13;;;16.40;69.35
12360;BME280;6244;51.460;7.090;2022-07-06T20:13:21;99064.34;;;16.40;69.00
12360;BME280;6244;51.460;7.090;2022-07-06T20:18:19;99058.31;;;16.38;68.93
12360;BME280;6244;51.460;7.090;2022-07-06T20:23:16;99047.47;;;16.30;69.67
12360;BME280;6244;51.460;7.090;2022-07-06T20:28:13;99052.91;;;16.17;69.76
12360;BME280;6244;51.460;7.090;2022-07-06T20:33:09;99051.81;;;16.20;70.26
12360;BME280;6244;51.460;7.090;2022-07-06T20:38:07;99047.00;;;16.14;70.32
12360;BME280;6244;51.460;7.090;2022-07-06T20:43:04;99044.25;;;16.15;70.56
12360;BME280;6244;51.460;7.090;2022-07-06T20:48:01;99042.66;;;16.13;70.02
12360;BME280;6244;51.460;7.090;2022-07-06T20:52:58;99045.22;;;16.14;70.33
12360;BME280;6244;51.460;7.090;2022-07-06T20:57:59;99038.72;;;16.07;70.82
12360;BME280;6244;51.460;7.090;2022-07-06T21:02:55;99050.84;;;16.10;70.73
12360;BME280;6244;51.460;7.090;2022-07-06T21:07:52;99045.09;;;16.05;71.42
12360;BME280;6244;51.460;7.090;2022-07-06T21:12:49;99026.81;;;16.02;71.60
12360;BME280;6244;51.460;7.090;2022-07-06T21:17:47;99025.13;;;16.01;71.55
12360;BME280;6244;51.460;7.090;2022-07-06T21:22:43;99017.91;;;15.92;71.94
12360;BME280;6244;51.460;7.090;2022-07-06T21:27:40;99020.09;;;15.87;72.08
12360;BME280;6244;51.460;7.090;2022-07-06T21:32:37;99016.94;;;15.82;72.35
12360;BME280;6244;51.460;7.090;2022-07-06T21:37:34;99014.06;;;15.85;72.52
12360;BME280;6244;51.460;7.090;2022-07-06T21:42:31;99007.13;;;15.84;72.28
12360;BME280;6244;51.460;7.090;2022-07-06T21:47:27;99005.53;;;15.81;72.47
12360;BME280;6244;51.460;7.090;2022-07-06T21:52:24;98998.94;;;15.76;72.17
12360;BME280;6244;51.460;7.090;2022-07-06T21:57:22;98989.81;;;15.69;72.59
12360;BME280;6244;51.460;7.090;2022-07-06T22:02:20;99006.47;;;15.58;71.84
12360;BME280;6244;51.460;7.090;2022-07-06T22:07:17;98996.16;;;15.55;71.66
12360;BME280;6244;51.460;7.090;2022-07-06T22:12:13;98984.84;;;15.53;72.11
12360;BME280;6244;51.460;7.090;2022-07-06T22:17:11;98981.97;;;15.56;72.27
12360;BME280;6244;51.460;7.090;2022-07-06T22:22:08;98984.84;;;15.53;71.89
12360;BME280;6244;51.460;7.090;2022-07-06T22:27:07;98966.72;;;15.49;71.72
12360;BME280;6244;51.460;7.090;2022-07-06T22:32:04;98971.00;;;15.39;70.52
12360;BME280;6244;51.460;7.090;2022-07-06T22:37:03;98978.03;;;15.27;69.63
12360;BME280;6244;51.460;7.090;2022-07-06T22:41:59;98968.91;;;15.31;69.63
12360;BME280;6244;51.460;7.090;2022-07-06T22:46:56;98963.50;;;15.33;69.67
12360;BME280;6244;51.460;7.090;2022-07-06T22:51:52;98959.31;;;15.30;69.15
12360;BME280;6244;51.460;7.090;2022-07-06T22:56:50;98966.38;;;15.30;69.17
12360;BME280;6244;51.460;7.090;2022-07-06T23:01:47;98967.97;;;15.32;68.59
12360;BME280;6244;51.460;7.090;2022-07-06T23:06:43;98968.78;;;15.33;67.82
12360;BME280;6244;51.460;7.090;2022-07-06T23:11:40;98956.56;;;15.32;67.15
12360;BME280;6244;51.460;7.090;2022-07-06T23:16:38;98933.16;;;15.27;66.72
12360;BME280;6244;51.460;7.090;2022-07-06T23:21:34;98931.47;;;15.26;65.29
12360;BME280;6244;51.460;7.090;2022-07-06T23:26:31;98930.88;;;15.23;64.76
12360;BME280;6244;51.460;7.090;2022-07-06T23:31:28;98921.84;;;15.25;64.03
12360;BME280;6244;51.460;7.090;2022-07-06T23:36:26;98915.75;;;15.25;64.35
12360;BME280;6244;51.460;7.090;2022-07-06T23:41:22;98904.97;;;15.28;65.31
12360;BME280;6244;51.460;7.090;2022-07-06T23:46:19;98904.00;;;15.29;65.02
12360;BME280;6244;51.460;7.090;2022-07-06T23:51:16;98905.31;;;15.23;64.93
12360;BME280;6244;51.460;7.090;2022-07-06T23:56:14;98900.41;;;15.19;63.48
